createdAt,value
2022-10-27T00:03:36.204Z,101987.88
2022-10-27T00:13:39.801Z,101995.63
2022-10-27T00:23:44.824Z,101992.09
2022-10-27T00:33:49.839Z,102002.41
2022-10-27T00:43:54.165Z,102004.06
2022-10-27T00:53:57.314Z,102022.16
2022-10-27T01:04:01.643Z,102016.16
2022-10-27T01:14:04.896Z,102027.53
2022-10-27T01:24:35.683Z,102034.56
2022-10-27T01:34:47.500Z,102035.50
2022-10-27T01:44:55.248Z,102037.28
2022-10-27T01:54:59.629Z,102026.91
2022-10-27T02:05:08.376Z,102029.47
2022-10-27T02:15:22.376Z,102021.63
2022-10-27T02:25:30.819Z,102017.25
2022-10-27T02:35:35.714Z,102009.41
2022-10-27T02:45:38.833Z,102008.47
2022-10-27T02:55:43.146Z,102004.06
2022-10-27T03:05:48.277Z,101994.47
2022-10-27T03:15:53.413Z,101982.34
2022-10-27T03:26:00.102Z,101979.69
2022-10-27T03:36:04.794Z,101968.41
2022-10-27T03:46:07.946Z,101969.22
2022-10-27T03:56:14.513Z,101966.56
2022-10-27T04:06:17.425Z,101957.91
2022-10-27T04:16:21.849Z,101976.81
2022-10-27T04:26:24.857Z,101988.91
2022-10-27T04:36:30.385Z,101990.63
2022-10-27T04:46:33.492Z,101987.19
2022-10-27T04:56:37.762Z,101998.50
2022-10-27T05:06:40.708Z,101989.06
2022-10-27T05:16:45.005Z,101984.88
2022-10-27T05:26:47.902Z,101983.22
2022-10-27T05:36:52.243Z,101976.41
2022-10-27T05:46:56.782Z,101971.28
2022-10-27T05:57:01.049Z,101946.22
2022-10-27T06:07:04.101Z,101954.84
2022-10-27T06:17:08.443Z,101948.81
2022-10-27T06:27:11.499Z,101936.78
2022-10-27T06:37:15.850Z,101922.09
2022-10-27T06:47:18.818Z,101923.81
2022-10-27T07:07:31.039Z,101909.09
2022-10-27T07:17:35.343Z,101916.88
2022-10-27T07:27:38.283Z,101916.03
2022-10-27T07:37:45.184Z,101910.88
2022-10-27T07:47:49.615Z,101916.13
2022-10-27T07:58:00.674Z,101917.03
2022-10-27T08:08:05.448Z,101901.44
2022-10-27T08:18:10.984Z,101890.16
2022-10-27T08:28:14.784Z,101887.44
2022-10-27T08:38:19.743Z,101892.50
2022-10-27T08:48:27.048Z,101880.09
2022-10-27T08:58:38.480Z,101858.03
2022-10-27T09:08:48.675Z,101836.66
2022-10-27T09:18:58.424Z,101843.97
2022-10-27T09:29:04.623Z,101836.44
2022-10-27T09:39:10.096Z,101828.09
2022-10-27T09:49:14.489Z,101808.56
2022-10-27T09:59:22.990Z,101815.03
2022-10-27T10:09:29.195Z,101806.59
2022-10-27T10:19:33.741Z,101777.81
2022-10-27T10:29:46.449Z,101777.06
2022-10-27T10:39:50.778Z,101776.53
2022-10-27T10:49:57.594Z,101767.34
2022-10-27T11:00:02.475Z,101763.16
2022-10-27T11:10:11.476Z,101763.75
2022-10-27T11:20:21.971Z,101747.63
2022-10-27T11:30:27.974Z,101756.41
2022-10-27T11:40:42.907Z,101742.72
2022-10-27T11:50:51.858Z,101737.56
2022-10-27T12:01:08.645Z,101733.69
2022-10-27T12:11:27.507Z,101712.91
2022-10-27T12:21:37.532Z,101704.81
2022-10-27T12:31:45.341Z,101678.88
2022-10-27T12:41:56.815Z,101665.09
2022-10-27T12:52:24.251Z,101652.22
2022-10-27T13:02:36.522Z,101654.09
2022-10-27T13:12:56.555Z,101639.81
2022-10-27T13:23:07.168Z,101639.81
2022-10-27T13:33:31.644Z,101623.06
2022-10-27T13:43:50.128Z,101603.06
2022-10-27T13:53:55.659Z,101593.41
2022-10-27T14:04:40.159Z,101590.56
2022-10-27T14:14:45.311Z,101606.41
2022-10-27T14:24:54.029Z,101607.38
2022-10-27T14:34:56.951Z,101607.47
2022-10-27T14:45:03.896Z,101624.03
2022-10-27T14:55:18.409Z,101622.28
2022-10-27T15:05:27.771Z,101639.03
2022-10-27T15:15:33.342Z,101653.34
2022-10-27T15:25:40.498Z,101636.50
2022-10-27T15:35:44.824Z,101620.03
2022-10-27T15:45:52.486Z,101629.88
2022-10-27T15:56:00.902Z,101632.72
2022-10-27T16:06:23.313Z,101646.28
2022-10-27T16:16:27.354Z,101643.34
2022-10-27T16:26:31.830Z,101656.06
2022-10-27T16:36:34.930Z,101660.56
2022-10-27T16:46:39.271Z,101675.44
2022-10-27T16:56:42.182Z,101687.28
2022-10-27T17:06:47.068Z,101681.53
2022-10-27T17:16:50.226Z,101669.78
2022-10-27T17:26:54.494Z,101658.06
2022-10-27T17:36:57.915Z,101662.63
2022-10-27T17:47:02.243Z,101655.16
2022-10-27T17:57:06.474Z,101652.09
2022-10-27T18:07:10.852Z,101649.00
2022-10-27T18:17:13.613Z,101656.22
2022-10-27T18:27:18.057Z,101642.69
2022-10-27T18:37:21.074Z,101637.78
2022-10-27T18:47:25.358Z,101651.03
2022-10-27T18:57:28.435Z,101649.41
2022-10-27T19:07:32.777Z,101633.00
2022-10-27T19:17:35.555Z,101625.16
2022-10-27T19:27:39.930Z,101623.94
2022-10-27T19:37:42.698Z,101635.56
2022-10-27T19:47:48.836Z,101636.91
2022-10-27T19:57:52.021Z,101649.09
2022-10-27T20:07:56.746Z,101644.75
2022-10-27T20:17:59.550Z,101654.41
2022-10-27T20:28:03.891Z,101641.34
2022-10-27T20:38:06.665Z,101640.50
2022-10-27T20:48:11.791Z,101652.75
2022-10-27T20:58:14.738Z,101635.53
2022-10-27T21:08:20.919Z,101628.72
2022-10-27T21:18:26.565Z,101614.69
2022-10-27T21:28:30.909Z,101610.97
2022-10-27T21:38:34.728Z,101608.25
2022-10-27T21:48:39.090Z,101612.47
2022-10-27T21:58:42.148Z,101605.56
2022-10-27T22:08:46.903Z,101617.09
2022-10-27T22:18:53.758Z,101609.53
2022-10-27T22:28:58.041Z,101603.69
2022-10-27T22:39:01.687Z,101590.09
2022-10-27T22:49:06.094Z,101575.09
2022-10-27T22:59:10.313Z,101583.53
2022-10-27T23:09:17.391Z,101593.44
2022-10-27T23:19:20.361Z,101587.59
2022-10-27T23:29:24.621Z,101584.19
2022-10-27T23:39:27.519Z,101597.44
2022-10-27T23:49:31.749Z,101594.22
2022-10-27T23:59:34.824Z,101590.06
